sensor_id;sensor_type;location;lat;lon;timestamp;pressure;altitude;pressure_sealevel;temperature;humidity
47556;BME280;33291;46.222;26.460;2023-07-13T00:00:29;96374.25;;;19.57;100.00
47556;BME280;33291;46.222;26.460;2023-07-13T00:02:55;96380.56;;;19.56;100.00
47556;BME280;33291;46.222;26.460;2023-07-13T00:05:22;96388.88;;;19.60;100.00
47556;BME280;33291;46.222;26.460;2023-07-13T00:07:49;96393.38;;;19.59;100.00
47556;BME280;33291;46.222;26.460;2023-07-13T00:10:15;96399.66;;;19.58;100.00
47556;BME280;33291;46.222;26.460;2023-07-13T00:12:41;96392.97;;;19.56;100.00
47556;BME280;33291;46.222;26.460;2023-07-13T00:15:14;96390.88;;;19.51;100.00
47556;BME280;33291;46.222;26.460;2023-07-13T00:17:41;96396.16;;;19.51;100.00
47556;BME280;33291;46.222;26.460;2023-07-13T00:20:07;96405.72;;;19.52;100.00
47556;BME280;33291;46.222;26.460;2023-07-13T00:22:33;96401.06;;;19.54;100.00
47556;BME280;33291;46.222;26.460;2023-07-13T00:24:59;96407.97;;;19.48;100.00
47556;BME280;33291;46.222;26.460;2023-07-13T00:27:24;96401.81;;;19.41;100.00
47556;BME280;33291;46.222;26.460;2023-07-13T00:29:55;96417.88;;;19.40;100.00
47556;BME280;33291;46.222;26.460;2023-07-13T00:32:20;96411.94;;;19.31;100.00
47556;BME280;33291;46.222;26.460;2023-07-13T00:34:46;96408.59;;;19.15;100.00
47556;BME280;33291;46.222;26.460;2023-07-13T00:37:12;96410.38;;;19.08;100.00
47556;BME280;33291;46.222;26.460;2023-07-13T00:39:37;96407.13;;;18.99;100.00
47556;BME280;33291;46.222;26.460;2023-07-13T00:42:04;96403.41;;;18.94;100.00
47556;BME280;33291;46.222;26.460;2023-07-13T00:44:30;96401.38;;;18.96;100.00
47556;BME280;33291;46.222;26.460;2023-07-13T00:46:56;96404.03;;;18.96;100.00
47556;BME280;33291;46.222;26.460;2023-07-13T00:49:25;96390.28;;;18.79;100.00
47556;BME280;33291;46.222;26.460;2023-07-13T00:51:56;96397.28;;;18.87;100.00
47556;BME280;33291;46.222;26.460;2023-07-13T00:54:32;96398.22;;;18.79;100.00
47556;BME280;33291;46.222;26.460;2023-07-13T00:57:01;96399.41;;;18.76;100.00
47556;BME280;33291;46.222;26.460;2023-07-13T00:59:28;96396.78;;;18.76;100.00
47556;BME280;33291;46.222;26.460;2023-07-13T01:01:54;96382.78;;;18.76;100.00
47556;BME280;33291;46.222;26.460;2023-07-13T01:04:19;96404.75;;;18.83;100.00
47556;BME280;33291;46.222;26.460;2023-07-13T01:06:46;96402.75;;;18.85;100.00
47556;BME280;33291;46.222;26.460;2023-07-13T01:09:13;96399.00;;;18.73;100.00
47556;BME280;33291;46.222;26.460;2023-07-13T01:11:40;96406.13;;;18.79;100.00
47556;BME280;33291;46.222;26.460;2023-07-13T01:14:06;96401.25;;;18.76;100.00
47556;BME280;33291;46.222;26.460;2023-07-13T01:16:34;96394.13;;;18.76;100.00
47556;BME280;33291;46.222;26.460;2023-07-13T01:19:00;96395.38;;;18.80;100.00
47556;BME280;33291;46.222;26.460;2023-07-13T01:21:32;96407.13;;;18.78;100.00
47556;BME280;33291;46.222;26.460;2023-07-13T01:23:58;96396.97;;;18.75;100.00
47556;BME280;33291;46.222;26.460;2023-07-13T01:26:23;96388.22;;;18.68;100.00
47556;BME280;33291;46.222;26.460;2023-07-13T01:28:49;96388.00;;;18.69;100.00
47556;BME280;33291;46.222;26.460;2023-07-13T01:31:14;96398.41;;;18.77;100.00
47556;BME280;33291;46.222;26.460;2023-07-13T01:33:41;96392.13;;;18.78;100.00
47556;BME280;33291;46.222;26.460;2023-07-13T01:36:08;96387.44;;;18.74;100.00
47556;BME280;33291;46.222;26.460;2023-07-13T01:38:35;96402.88;;;18.77;100.00
47556;BME280;33291;46.222;26.460;2023-07-13T01:41:01;96387.25;;;18.75;100.00
47556;BME280;33291;46.222;26.460;2023-07-13T01:43:27;96383.16;;;18.73;100.00
47556;BME280;33291;46.222;26.460;2023-07-13T01:45:52;96378.25;;;18.70;100.00
47556;BME280;33291;46.222;26.460;2023-07-13T01:48:18;96371.94;;;18.64;100.00
47556;BME280;33291;46.222;26.460;2023-07-13T01:50:45;96385.19;;;18.71;100.00
47556;BME280;33291;46.222;26.460;2023-07-13T01:53:10;96364.56;;;18.53;100.00
47556;BME280;33291;46.222;26.460;2023-07-13T01:55:37;96388.22;;;18.68;100.00
47556;BME280;33291;46.222;26.460;2023-07-13T01:58:03;96383.75;;;18.68;100.00
47556;BME280;33291;46.222;26.460;2023-07-13T02:00:28;96384.94;;;18.65;100.00
47556;BME280;33291;46.222;26.460;2023-07-13T02:02:54;96394.69;;;18.65;100.00
47556;BME280;33291;46.222;26.460;2023-07-13T02:05:20;96377.09;;;18.51;100.00
47556;BME280;33291;46.222;26.460;2023-07-13T02:07:46;96374.53;;;18.57;100.00
47556;BME280;33291;46.222;26.460;2023-07-13T02:10:11;96387.91;;;18.56;100.00
47556;BME280;33291;46.222;26.460;2023-07-13T02:12:37;96395.25;;;18.60;100.00
47556;BME280;33291;46.222;26.460;2023-07-13T02:15:04;96393.59;;;18.59;100.00
47556;BME280;33291;46.222;26.460;2023-07-13T02:17:30;96373.06;;;18.48;100.00
47556;BME280;33291;46.222;26.460;2023-07-13T02:19:57;96351.66;;;18.36;100.00
47556;BME280;33291;46.222;26.460;2023-07-13T02:22:22;96384.59;;;18.47;100.00
47556;BME280;33291;46.222;26.460;2023-07-13T02:24:49;96397.78;;;18.47;100.00
47556;BME280;33291;46.222;26.460;2023-07-13T02:27:15;96390.59;;;18.34;100.00
47556;BME280;33291;46.222;26.460;2023-07-13T02:29:40;96392.41;;;18.34;100.00
47556;BME280;33291;46.222;26.460;2023-07-13T02:32:06;96404.19;;;18.38;100.00
47556;BME280;33291;46.222;26.460;2023-07-13T02:34:32;96400.13;;;18.35;100.00
47556;BME280;33291;46.222;26.460;2023-07-13T02:36:57;96398.69;;;18.33;100.00
47556;BME280;33291;46.222;26.460;2023-07-13T02:39:23;96408.03;;;18.35;100.00
47556;BME280;33291;46.222;26.460;2023-07-13T02:41:48;96401.06;;;18.27;100.00
47556;BME280;33291;46.222;26.460;2023-07-13T02:44:14;96405.34;;;18.28;100.00
47556;BME280;33291;46.222;26.460;2023-07-13T02:46:40;96411.75;;;18.19;100.00
47556;BME280;33291;46.222;26.460;2023-07-13T02:49:06;96418.63;;;18.20;100.00
47556;BME280;33291;46.222;26.460;2023-07-13T02:51:31;96417.78;;;18.13;100.00
47556;BME280;33291;46.222;26.460;2023-07-13T02:54:03;96421.41;;;18.12;100.00
47556;BME280;33291;46.222;26.460;2023-07-13T02:56:30;96422.88;;;18.15;100.00
47556;BME280;33291;46.222;26.460;2023-07-13T02:58:57;96414.88;;;18.08;100.00
47556;BME280;33291;46.222;26.460;2023-07-13T03:01:23;96417.50;;;18.08;100.00
47556;BME280;33291;46.222;26.460;2023-07-13T03:03:49;96421.78;;;18.09;100.00
47556;BME280;33291;46.222;26.460;2023-07-13T03:06:15;96429.47;;;18.04;100.00
47556;BME280;33291;46.222;26.460;2023-07-13T03:08:42;96425.47;;;17.93;100.00
47556;BME280;33291;46.222;26.460;2023-07-13T03:11:11;96437.75;;;18.01;100.00
47556;BME280;33291;46.222;26.460;2023-07-13T03:13:38;96436.53;;;18.03;100.00
47556;BME280;33291;46.222;26.460;2023-07-13T03:16:04;96425.19;;;18.03;100.00
47556;BME280;33291;46.222;26.460;2023-07-13T03:18:31;96434.41;;;18.14;100.00
47556;BME280;33291;46.222;26.460;2023-07-13T03:20:56;96435.66;;;18.18;100.00
47556;BME280;33291;46.222;26.460;2023-07-13T03:23:22;96437.47;;;18.17;100.00
47556;BME280;33291;46.222;26.460;2023-07-13T03:25:48;96401.56;;;17.94;100.00
47556;BME280;33291;46.222;26.460;2023-07-13T03:28:14;96428.94;;;18.15;100.00
47556;BME280;33291;46.222;26.460;2023-07-13T03:30:41;96428.94;;;18.15;100.00
47556;BME280;33291;46.222;26.460;2023-07-13T03:33:07;96429.75;;;18.16;100.00
47556;BME280;33291;46.222;26.460;2023-07-13T03:35:34;96428.06;;;18.08;100.00
47556;BME280;33291;46.222;26.460;2023-07-13T03:37:59;96429.31;;;18.12;100.00
47556;BME280;33291;46.222;26.460;2023-07-13T03:40:26;96409.94;;;17.98;100.00
47556;BME280;33291;46.222;26.460;2023-07-13T03:42:52;96430.13;;;18.13;100.00
47556;BME280;33291;46.222;26.460;2023-07-13T03:45:18;96438.91;;;18.20;100.00
47556;BME280;33291;46.222;26.460;2023-07-13T03:47:44;96433.84;;;18.18;100.00
47556;BME280;33291;46.222;26.460;2023-07-13T03:50:09;96423.25;;;18.11;100.00
47556;BME280;33291;46.222;26.460;2023-07-13T03:52:35;96449.91;;;18.23;100.00
47556;BME280;33291;46.222;26.460;2023-07-13T03:55:01;96441.00;;;18.24;100.00
47556;BME280;33291;46.222;26.460;2023-07-13T03:57:26;96428.94;;;18.15;100.00
47556;BME280;33291;46.222;26.460;2023-07-13T03:59:52;96438.34;;;18.24;100.00
47556;BME280;33291;46.222;26.460;2023-07-13T04:02:17;96441.88;;;18.32;100.00
47556;BME280;33291;46.222;26.460;2023-07-13T04:04:43;96428.63;;;18.25;100.00
47556;BME280;33291;46.222;26.460;2023-07-13T04:07:09;96418.81;;;18.19;100.00
47556;BME280;33291;46.222;26.460;2023-07-13T04:09:35;96443.75;;;18.38;100.00
47556;BME280;33291;46.222;26.460;2023-07-13T04:12:01;96439.75;;;18.42;100.00
47556;BME280;33291;46.222;26.460;2023-07-13T04:14:26;96431.84;;;18.42;100.00
47556;BME280;33291;46.222;26.460;2023-07-13T04:16:51;96444.06;;;18.50;100.00
47556;BME280;33291;46.222;26.460;2023-07-13T04:19:20;96440.59;;;18.49;100.00
47556;BME280;33291;46.222;26.460;2023-07-13T04:21:45;96437.84;;;18.57;100.00
47556;BME280;33291;46.222;26.460;2023-07-13T04:24:11;96434.00;;;18.60;100.00
47556;BME280;33291;46.222;26.460;2023-07-13T04:26:37;96446.84;;;18.70;100.00
47556;BME280;33291;46.222;26.460;2023-07-13T04:29:04;96453.00;;;18.77;100.00
47556;BME280;33291;46.222;26.460;2023-07-13T04:31:30;96453.25;;;18.82;100.00
47556;BME280;33291;46.222;26.460;2023-07-13T04:33:56;96450.25;;;18.85;100.00
47556;BME280;33291;46.222;26.460;2023-07-13T04:36:22;96450.47;;;18.90;100.00
47556;BME280;33291;46.222;26.460;2023-07-13T04:38:47;96446.06;;;18.97;100.00
47556;BME280;33291;46.222;26.460;2023-07-13T04:41:15;96446.31;;;19.03;100.00
47556;BME280;33291;46.222;26.460;2023-07-13T04:43:41;96436.97;;;19.00;100.00
47556;BME280;33291;46.222;26.460;2023-07-13T04:46:08;96445.16;;;19.12;100.00
47556;BME280;33291;46.222;26.460;2023-07-13T04:48:34;96448.63;;;19.19;100.00
47556;BME280;33291;46.222;26.460;2023-07-13T04:51:00;96448.06;;;19.24;100.00
47556;BME280;33291;46.222;26.460;2023-07-13T04:53:26;96459.06;;;19.27;100.00
47556;BME280;33291;46.222;26.460;2023-07-13T04:55:52;96446.47;;;19.29;100.00
47556;BME280;33291;46.222;26.460;2023-07-13T04:58:18;96450.56;;;19.39;100.00
47556;BME280;33291;46.222;26.460;2023-07-13T05:00:44;96452.03;;;19.48;100.00
47556;BME280;33291;46.222;26.460;2023-07-13T05:03:09;96458.81;;;19.57;100.00
47556;BME280;33291;46.222;26.460;2023-07-13T05:05:35;96456.38;;;19.62;100.00
47556;BME280;33291;46.222;26.460;2023-07-13T05:08:00;96430.75;;;19.56;100.00
47556;BME280;33291;46.222;26.460;2023-07-13T05:10:26;96439.94;;;19.74;100.00
47556;BME280;33291;46.222;26.460;2023-07-13T05:12:52;96431.44;;;19.78;100.00
47556;BME280;33291;46.222;26.460;2023-07-13T05:15:18;96450.41;;;19.88;100.00
47556;BME280;33291;46.222;26.460;2023-07-13T05:17:50;96447.16;;;19.93;100.00
47556;BME280;33291;46.222;26.460;2023-07-13T05:20:16;96454.09;;;20.01;100.00
47556;BME280;33291;46.222;26.460;2023-07-13T05:22:43;96449.22;;;20.04;100.00
47556;BME280;33291;46.222;26.460;2023-07-13T05:25:09;96451.06;;;20.11;100.00
47556;BME280;33291;46.222;26.460;2023-07-13T05:27:35;96440.91;;;20.08;100.00
47556;BME280;33291;46.222;26.460;2023-07-13T05:30:03;96454.56;;;20.18;100.00
47556;BME280;33291;46.222;26.460;2023-07-13T05:32:28;96463.28;;;20.25;100.00
47556;BME280;33291;46.222;26.460;2023-07-13T05:34:54;96459.03;;;20.31;100.00
47556;BME280;33291;46.222;26.460;2023-07-13T05:37:19;96460.66;;;20.45;100.00
47556;BME280;33291;46.222;26.460;2023-07-13T05:39:45;96460.69;;;20.52;100.00
47556;BME280;33291;46.222;26.460;2023-07-13T05:42:10;96463.97;;;20.61;100.00
47556;BME280;33291;46.222;26.460;2023-07-13T05:44:36;96468.25;;;20.68;100.00
47556;BME280;33291;46.222;26.460;2023-07-13T05:47:01;96484.94;;;20.89;100.00
47556;BME280;33291;46.222;26.460;2023-07-13T05:49:27;96484.75;;;20.97;100.00
47556;BME280;33291;46.222;26.460;2023-07-13T05:51:53;96475.16;;;21.03;100.00
47556;BME280;33291;46.222;26.460;2023-07-13T05:54:18;96468.22;;;21.08;100.00
47556;BME280;33291;46.222;26.460;2023-07-13T05:56:44;96475.16;;;21.23;100.00
47556;BME280;33291;46.222;26.460;2023-07-13T05:59:09;96472.84;;;21.33;100.00
47556;BME280;33291;46.222;26.460;2023-07-13T06:01:35;96475.72;;;21.38;100.00
47556;BME280;33291;46.222;26.460;2023-07-13T06:04:00;96488.75;;;21.53;100.00
47556;BME280;33291;46.222;26.460;2023-07-13T06:06:26;96474.03;;;21.57;100.00
47556;BME280;33291;46.222;26.460;2023-07-13T06:08:51;96477.28;;;21.66;100.00
47556;BME280;33291;46.222;26.460;2023-07-13T06:11:20;96474.41;;;21.74;100.00
47556;BME280;33291;46.222;26.460;2023-07-13T06:13:46;96463.81;;;21.74;100.00
47556;BME280;33291;46.222;26.460;2023-07-13T06:16:12;96477.19;;;21.93;100.00
47556;BME280;33291;46.222;26.460;2023-07-13T06:18:39;96480.59;;;22.00;100.00
47556;BME280;33291;46.222;26.460;2023-07-13T06:21:09;96462.03;;;22.00;100.00
47556;BME280;33291;46.222;26.460;2023-07-13T06:23:35;96475.00;;;22.22;100.00
47556;BME280;33291;46.222;26.460;2023-07-13T06:26:02;96469.03;;;22.33;100.00
47556;BME280;33291;46.222;26.460;2023-07-13T06:28:28;96465.94;;;22.36;100.00
47556;BME280;33291;46.222;26.460;2023-07-13T06:30:55;96474.25;;;22.46;100.00
47556;BME280;33291;46.222;26.460;2023-07-13T06:33:20;96464.56;;;22.59;100.00
47556;BME280;33291;46.222;26.460;2023-07-13T06:35:46;96462.09;;;22.64;100.00
47556;BME280;33291;46.222;26.460;2023-07-13T06:38:11;96463.59;;;22.78;99.67
47556;BME280;33291;46.222;26.460;2023-07-13T06:40:37;96463.09;;;22.88;99.34
47556;BME280;33291;46.222;26.460;2023-07-13T06:43:02;96462.19;;;23.01;98.70
47556;BME280;33291;46.222;26.460;2023-07-13T06:45:27;96458.81;;;23.12;98.33
47556;BME280;33291;46.222;26.460;2023-07-13T06:47:53;96448.94;;;23.19;97.46
47556;BME280;33291;46.222;26.460;2023-07-13T06:50:18;96450.44;;;23.34;96.84
47556;BME280;33291;46.222;26.460;2023-07-13T06:52:44;96442.16;;;23.42;95.63
47556;BME280;33291;46.222;26.460;2023-07-13T06:55:09;96441.28;;;23.48;94.77
47556;BME280;33291;46.222;26.460;2023-07-13T06:57:35;96442.88;;;23.68;92.26
47556;BME280;33291;46.222;26.460;2023-07-13T07:00:00;96443.75;;;23.80;92.44
47556;BME280;33291;46.222;26.460;2023-07-13T07:02:26;96439.63;;;23.84;91.24
47556;BME280;33291;46.222;26.460;2023-07-13T07:04:51;96437.50;;;23.93;88.95
47556;BME280;33291;46.222;26.460;2023-07-13T07:07:17;96440.56;;;24.08;89.29
47556;BME280;33291;46.222;26.460;2023-07-13T07:09:42;96441.41;;;24.21;88.26
47556;BME280;33291;46.222;26.460;2023-07-13T07:12:08;96440.28;;;24.28;87.99
47556;BME280;33291;46.222;26.460;2023-07-13T07:14:33;96446.53;;;24.46;85.82
47556;BME280;33291;46.222;26.460;2023-07-13T07:16:59;96446.75;;;24.63;82.56
47556;BME280;33291;46.222;26.460;2023-07-13T07:19:25;96451.97;;;24.81;80.34
47556;BME280;33291;46.222;26.460;2023-07-13T07:21:50;96450.34;;;24.92;78.21
47556;BME280;33291;46.222;26.460;2023-07-13T07:24:16;96450.47;;;24.97;78.82
47556;BME280;33291;46.222;26.460;2023-07-13T07:26:41;96453.34;;;25.08;79.34
47556;BME280;33291;46.222;26.460;2023-07-13T07:29:07;96455.88;;;25.26;78.05
47556;BME280;33291;46.222;26.460;2023-07-13T07:31:32;96448.72;;;25.39;74.77
47556;BME280;33291;46.222;26.460;2023-07-13T07:33:58;96439.09;;;25.49;73.34
47556;BME280;33291;46.222;26.460;2023-07-13T07:42:42;96453.22;;;26.02;67.55
47556;BME280;33291;46.222;26.460;2023-07-13T07:45:08;96441.94;;;26.12;67.12
47556;BME280;33291;46.222;26.460;2023-07-13T07:47:33;96436.91;;;26.16;65.90
47556;BME280;33291;46.222;26.460;2023-07-13T07:49:58;96447.06;;;26.31;65.67
47556;BME280;33291;46.222;26.460;2023-07-13T07:52:24;96447.00;;;26.42;65.65
47556;BME280;33291;46.222;26.460;2023-07-13T07:54:49;96441.16;;;26.46;66.05
47556;BME280;33291;46.222;26.460;2023-07-13T07:57:15;96443.44;;;26.54;64.81
47556;BME280;33291;46.222;26.460;2023-07-13T07:59:40;96453.03;;;26.67;64.17
47556;BME280;33291;46.222;26.460;2023-07-13T08:02:08;96433.91;;;26.75;64.42
47556;BME280;33291;46.222;26.460;2023-07-13T08:04:34;96428.41;;;26.82;64.30
47556;BME280;33291;46.222;26.460;2023-07-13T08:06:59;96429.03;;;26.89;64.53
47556;BME280;33291;46.222;26.460;2023-07-13T08:09:28;96415.78;;;26.94;64.75
47556;BME280;33291;46.222;26.460;2023-07-13T08:11:53;96424.78;;;27.10;64.11
47556;BME280;33291;46.222;26.460;2023-07-13T08:14:20;96428.91;;;27.18;63.77
47556;BME280;33291;46.222;26.460;2023-07-13T08:16:45;96418.13;;;27.29;63.00
47556;BME280;33291;46.222;26.460;2023-07-13T08:19:10;96421.25;;;27.43;62.10
47556;BME280;33291;46.222;26.460;2023-07-13T08:21:36;96432.03;;;27.48;61.19
47556;BME280;33291;46.222;26.460;2023-07-13T08:24:02;96425.34;;;27.51;61.46
47556;BME280;33291;46.222;26.460;2023-07-13T08:26:28;96404.22;;;27.50;60.67
47556;BME280;33291;46.222;26.460;2023-07-13T08:28:53;96423.19;;;27.70;60.82
47556;BME280;33291;46.222;26.460;2023-07-13T08:31:19;96414.91;;;27.72;59.33
47556;BME280;33291;46.222;26.460;2023-07-13T08:33:44;96414.44;;;27.80;58.44
47556;BME280;33291;46.222;26.460;2023-07-13T08:36:10;96423.91;;;27.88;58.18
47556;BME280;33291;46.222;26.460;2023-07-13T08:38:35;96407.84;;;27.88;57.73
47556;BME280;33291;46.222;26.460;2023-07-13T08:41:10;96429.22;;;28.05;57.03
47556;BME280;33291;46.222;26.460;2023-07-13T08:43:37;96422.84;;;28.11;57.06
47556;BME280;33291;46.222;26.460;2023-07-13T08:49:15;96424.25;;;28.18;58.71
47556;BME280;33291;46.222;26.460;2023-07-13T08:51:47;96433.56;;;28.38;59.45
47556;BME280;33291;46.222;26.460;2023-07-13T08:54:32;96440.06;;;28.47;54.86
47556;BME280;33291;46.222;26.460;2023-07-13T08:56:59;96422.41;;;28.51;52.43
47556;BME280;33291;46.222;26.460;2023-07-13T08:59:28;96428.88;;;28.56;51.55
47556;BME280;33291;46.222;26.460;2023-07-13T09:04:39;96421.47;;;28.68;48.76
47556;BME280;33291;46.222;26.460;2023-07-13T09:15:30;96405.09;;;29.02;46.80
47556;BME280;33291;46.222;26.460;2023-07-13T09:18:07;96414.78;;;29.08;47.03
47556;BME280;33291;46.222;26.460;2023-07-13T09:20:53;96393.88;;;29.10;46.82
47556;BME280;33291;46.222;26.460;2023-07-13T09:23:21;96392.25;;;29.09;47.77
47556;BME280;33291;46.222;26.460;2023-07-13T09:25:50;96382.03;;;29.01;50.26
47556;BME280;33291;46.222;26.460;2023-07-13T09:28:22;96410.28;;;29.14;50.95
47556;BME280;33291;46.222;26.460;2023-07-13T09:31:07;96412.97;;;29.14;51.39
47556;BME280;33291;46.222;26.460;2023-07-13T09:33:38;96421.22;;;29.12;51.90
47556;BME280;33291;46.222;26.460;2023-07-13T09:39:09;96426.06;;;29.10;51.58
47556;BME280;33291;46.222;26.460;2023-07-13T09:41:53;96442.16;;;29.10;51.33
47556;BME280;33291;46.222;26.460;2023-07-13T09:44:56;96445.34;;;29.07;52.28
47556;BME280;33291;46.222;26.460;2023-07-13T09:47:24;96440.25;;;29.11;52.73
47556;BME280;33291;46.222;26.460;2023-07-13T09:50:06;96433.69;;;29.23;50.92
47556;BME280;33291;46.222;26.460;2023-07-13T09:52:50;96439.63;;;29.31;50.27
47556;BME280;33291;46.222;26.460;2023-07-13T09:55:35;96441.75;;;29.29;51.04
47556;BME280;33291;46.222;26.460;2023-07-13T09:58:22;96433.75;;;29.34;51.97
47556;BME280;33291;46.222;26.460;2023-07-13T10:01:08;96437.00;;;29.46;50.35
47556;BME280;33291;46.222;26.460;2023-07-13T10:03:35;96416.06;;;29.43;48.42
47556;BME280;33291;46.222;26.460;2023-07-13T10:06:14;96433.03;;;29.59;48.55
47556;BME280;33291;46.222;26.460;2023-07-13T10:08:39;96408.03;;;29.48;49.63
47556;BME280;33291;46.222;26.460;2023-07-13T10:14:15;96412.97;;;29.77;48.71
47556;BME280;33291;46.222;26.460;2023-07-13T10:16:43;96401.13;;;29.68;50.11
47556;BME280;33291;46.222;26.460;2023-07-13T10:19:25;96385.00;;;29.57;49.64
47556;BME280;33291;46.222;26.460;2023-07-13T10:22:00;96394.72;;;29.74;49.83
47556;BME280;33291;46.222;26.460;2023-07-13T10:24:27;96410.09;;;29.84;48.72
47556;BME280;33291;46.222;26.460;2023-07-13T10:27:05;96413.88;;;29.93;49.65
47556;BME280;33291;46.222;26.460;2023-07-13T10:29:44;96413.56;;;29.89;50.01
47556;BME280;33291;46.222;26.460;2023-07-13T10:32:12;96406.84;;;29.82;49.62
47556;BME280;33291;46.222;26.460;2023-07-13T10:34:39;96398.22;;;29.80;50.50
47556;BME280;33291;46.222;26.460;2023-07-13T10:37:07;96380.72;;;29.67;49.81
47556;BME280;33291;46.222;26.460;2023-07-13T10:39:41;96400.63;;;29.76;49.65
47556;BME280;33291;46.222;26.460;2023-07-13T10:42:11;96386.66;;;29.69;49.80
47556;BME280;33291;46.222;26.460;2023-07-13T10:44:39;96394.13;;;29.67;50.21
47556;BME280;33291;46.222;26.460;2023-07-13T10:47:08;96395.50;;;29.74;49.63
47556;BME280;33291;46.222;26.460;2023-07-13T10:49:37;96393.66;;;29.75;49.66
47556;BME280;33291;46.222;26.460;2023-07-13T10:52:03;96397.47;;;29.84;51.21
47556;BME280;33291;46.222;26.460;2023-07-13T10:59:38;96389.97;;;29.91;51.02
47556;BME280;33291;46.222;26.460;2023-07-13T11:04:42;96369.53;;;29.95;50.18
47556;BME280;33291;46.222;26.460;2023-07-13T11:07:20;96383.53;;;30.08;49.97
47556;BME280;33291;46.222;26.460;2023-07-13T11:09:50;96386.50;;;30.06;49.38
47556;BME280;33291;46.222;26.460;2023-07-13T11:23:08;96386.22;;;30.13;49.87
47556;BME280;33291;46.222;26.460;2023-07-13T11:25:36;96376.00;;;30.15;49.80
47556;BME280;33291;46.222;26.460;2023-07-13T11:33:24;96370.13;;;30.23;49.40
47556;BME280;33291;46.222;26.460;2023-07-13T11:36:13;96368.22;;;30.29;50.55
47556;BME280;33291;46.222;26.460;2023-07-13T11:38:41;96361.50;;;30.37;50.13
47556;BME280;33291;46.222;26.460;2023-07-13T11:41:24;96357.47;;;30.39;49.61
47556;BME280;33291;46.222;26.460;2023-07-13T11:44:02;96323.38;;;30.24;49.96
47556;BME280;33291;46.222;26.460;2023-07-13T11:46:30;96324.69;;;30.32;50.08
47556;BME280;33291;46.222;26.460;2023-07-13T11:48:55;96313.16;;;30.37;49.80
47556;BME280;33291;46.222;26.460;2023-07-13T11:51:24;96291.69;;;30.42;49.45
47556;BME280;33291;46.222;26.460;2023-07-13T11:53:53;96275.28;;;30.54;48.13
47556;BME280;33291;46.222;26.460;2023-07-13T11:56:19;96286.53;;;30.61;48.74
47556;BME280;33291;46.222;26.460;2023-07-13T11:58:49;96277.91;;;30.64;48.28
47556;BME280;33291;46.222;26.460;2023-07-13T12:01:24;96274.69;;;30.72;47.91
47556;BME280;33291;46.222;26.460;2023-07-13T12:03:51;96263.63;;;30.79;47.27
47556;BME280;33291;46.222;26.460;2023-07-13T12:06:30;96254.47;;;30.90;46.52
47556;BME280;33291;46.222;26.460;2023-07-13T12:09:01;96274.34;;;30.99;47.30
47556;BME280;33291;46.222;26.460;2023-07-13T12:11:28;96273.25;;;31.06;45.92
47556;BME280;33291;46.222;26.460;2023-07-13T12:13:55;96287.50;;;31.11;43.81
47556;BME280;33291;46.222;26.460;2023-07-13T12:18:46;96268.31;;;31.23;43.97
47556;BME280;33291;46.222;26.460;2023-07-13T12:21:13;96294.66;;;31.26;42.02
47556;BME280;33291;46.222;26.460;2023-07-13T12:23:43;96285.84;;;31.21;41.47
47556;BME280;33291;46.222;26.460;2023-07-13T12:26:09;96303.28;;;31.23;40.06
47556;BME280;33291;46.222;26.460;2023-07-13T12:28:38;96299.84;;;31.17;40.44
47556;BME280;33291;46.222;26.460;2023-07-13T12:31:07;96303.34;;;31.13;40.90
47556;BME280;33291;46.222;26.460;2023-07-13T12:33:33;96306.59;;;31.10;41.99
47556;BME280;33291;46.222;26.460;2023-07-13T12:36:01;96310.34;;;31.09;44.28
47556;BME280;33291;46.222;26.460;2023-07-13T12:38:30;96308.75;;;30.97;44.53
47556;BME280;33291;46.222;26.460;2023-07-13T12:40:55;96300.16;;;30.95;45.06
47556;BME280;33291;46.222;26.460;2023-07-13T12:43:23;96289.44;;;30.90;45.42
47556;BME280;33291;46.222;26.460;2023-07-13T12:46:02;96291.56;;;30.93;46.03
47556;BME280;33291;46.222;26.460;2023-07-13T12:48:28;96288.59;;;30.90;46.96
47556;BME280;33291;46.222;26.460;2023-07-13T12:50:55;96301.25;;;30.89;47.81
47556;BME280;33291;46.222;26.460;2023-07-13T12:53:29;96295.88;;;30.89;48.62
47556;BME280;33291;46.222;26.460;2023-07-13T12:55:58;96304.75;;;30.85;47.13
47556;BME280;33291;46.222;26.460;2023-07-13T12:58:30;96305.03;;;30.83;47.26
47556;BME280;33291;46.222;26.460;2023-07-13T13:00:59;96298.31;;;30.80;45.66
47556;BME280;33291;46.222;26.460;2023-07-13T13:03:30;96300.47;;;30.78;44.14
47556;BME280;33291;46.222;26.460;2023-07-13T13:06:06;96304.25;;;30.77;45.59
47556;BME280;33291;46.222;26.460;2023-07-13T13:08:36;96290.81;;;30.72;44.71
47556;BME280;33291;46.222;26.460;2023-07-13T13:11:02;96298.63;;;30.69;45.10
47556;BME280;33291;46.222;26.460;2023-07-13T13:13:28;96301.88;;;30.60;44.79
47556;BME280;33291;46.222;26.460;2023-07-13T13:15:54;96298.09;;;30.56;45.20
47556;BME280;33291;46.222;26.460;2023-07-13T13:18:21;96289.25;;;30.45;45.29
47556;BME280;33291;46.222;26.460;2023-07-13T13:20:48;96280.38;;;30.35;45.70
47556;BME280;33291;46.222;26.460;2023-07-13T13:23:18;96289.00;;;30.42;46.72
47556;BME280;33291;46.222;26.460;2023-07-13T13:25:50;96278.50;;;30.30;47.15
47556;BME280;33291;46.222;26.460;2023-07-13T13:28:18;96300.25;;;30.34;47.41
47556;BME280;33291;46.222;26.460;2023-07-13T13:30:46;96295.97;;;30.33;47.46
47556;BME280;33291;46.222;26.460;2023-07-13T13:33:18;96308.31;;;30.34;47.06
47556;BME280;33291;46.222;26.460;2023-07-13T13:35:44;96291.41;;;30.28;47.32
47556;BME280;33291;46.222;26.460;2023-07-13T13:38:14;96297.03;;;30.37;48.91
47556;BME280;33291;46.222;26.460;2023-07-13T13:40:42;96303.53;;;30.46;50.22